createdAt,value
2022-08-23T00:01:25.615Z,66.20
2022-08-23T00:03:59.674Z,66.20
2022-08-23T00:06:28.321Z,66.20
2022-08-23T00:08:56.612Z,66.20
2022-08-23T00:11:35.632Z,66.20
2022-08-23T00:14:16.326Z,66.20
2022-08-23T00:16:44.398Z,66.20
2022-08-23T00:19:15.271Z,66.20
2022-08-23T00:21:44.573Z,66.20
2022-08-23T00:24:14.344Z,66.20
2022-08-23T00:27:00.591Z,66.20
2022-08-23T00:29:40.306Z,66.10
2022-08-23T00:32:10.089Z,66.10
2022-08-23T00:34:38.185Z,66.10
2022-08-23T00:37:05.908Z,66.10
2022-08-23T00:39:34.001Z,66.10
2022-08-23T00:42:32.772Z,66.20
2022-08-23T00:45:21.767Z,66.20
2022-08-23T00:47:51.200Z,66.20
2022-08-23T00:50:30.117Z,66.20
2022-08-23T00:53:02.531Z,66.10
2022-08-23T00:55:30.910Z,66.10
2022-08-23T00:57:59.250Z,66.10
2022-08-23T01:00:27.921Z,66.10
2022-08-23T01:02:55.720Z,66.10
2022-08-23T01:05:28.634Z,66.10
2022-08-23T01:07:58.579Z,66.10
2022-08-23T01:10:32.780Z,66.10
2022-08-23T01:13:13.989Z,66.10
2022-08-23T01:16:10.649Z,66.00
2022-08-23T01:18:39.778Z,66.10
2022-08-23T01:21:20.557Z,66.10
2022-08-23T01:23:53.590Z,66.10
2022-08-23T01:26:23.846Z,66.00
2022-08-23T01:28:53.709Z,66.10
2022-08-23T01:31:23.212Z,66.10
2022-08-23T01:34:07.324Z,66.10
2022-08-23T01:36:36.146Z,66.10
2022-08-23T01:39:06.057Z,66.10
2022-08-23T01:41:34.167Z,66.10
2022-08-23T01:44:01.683Z,66.10
2022-08-23T01:46:29.434Z,66.10
2022-08-23T01:48:58.603Z,66.10
2022-08-23T01:51:29.675Z,66.70
2022-08-23T01:53:58.302Z,66.10
2022-08-23T01:56:38.861Z,66.10
2022-08-23T01:59:11.174Z,66.10
2022-08-23T02:01:44.522Z,66.10
2022-08-23T02:04:12.066Z,66.10
2022-08-23T02:06:39.777Z,66.10
2022-08-23T02:09:17.173Z,66.10
2022-08-23T02:11:46.766Z,66.10
2022-08-23T02:14:18.861Z,66.20
2022-08-23T02:17:03.520Z,66.10
2022-08-23T02:19:36.713Z,66.10
2022-08-23T02:22:06.121Z,66.10
2022-08-23T02:24:34.580Z,66.10
2022-08-23T02:27:05.330Z,66.10
2022-08-23T02:29:39.524Z,66.10
2022-08-23T02:32:10.626Z,66.10
2022-08-23T02:34:41.124Z,66.10
2022-08-23T02:37:11.065Z,66.10
2022-08-23T02:39:39.301Z,66.10
2022-08-23T02:42:08.494Z,66.10
2022-08-23T02:44:41.224Z,66.10
2022-08-23T02:47:09.381Z,66.10
2022-08-23T02:49:39.231Z,66.10
2022-08-23T02:52:07.707Z,66.10
2022-08-23T02:54:36.326Z,66.10
2022-08-23T02:57:04.047Z,66.10
2022-08-23T02:59:31.936Z,66.10
2022-08-23T03:01:59.764Z,66.10
2022-08-23T03:04:32.535Z,66.10
2022-08-23T03:06:59.959Z,66.10
2022-08-23T03:09:28.287Z,66.10
2022-08-23T03:11:55.856Z,66.80
2022-08-23T03:14:25.323Z,66.10
2022-08-23T03:16:53.016Z,66.10
2022-08-23T03:19:24.575Z,66.10
2022-08-23T03:21:52.031Z,66.20
2022-08-23T03:24:20.604Z,66.20
2022-08-23T03:26:48.124Z,66.20
2022-08-23T03:29:17.038Z,66.10
2022-08-23T03:32:03.131Z,66.20
2022-08-23T03:34:35.116Z,66.20
2022-08-23T03:37:02.898Z,66.20
2022-08-23T03:39:30.597Z,66.10
2022-08-23T03:42:00.321Z,66.10
2022-08-23T03:44:31.719Z,66.10
2022-08-23T03:46:59.365Z,66.20
2022-08-23T03:49:27.641Z,66.20
2022-08-23T03:51:57.592Z,66.10
2022-08-23T03:54:25.146Z,66.20
2022-08-23T03:57:03.050Z,66.20
2022-08-23T03:59:35.369Z,66.20
2022-08-23T04:02:05.441Z,66.20
2022-08-23T04:04:33.359Z,66.20
2022-08-23T04:07:21.035Z,66.20
2022-08-23T04:09:55.195Z,66.10
2022-08-23T04:12:25.700Z,66.20
2022-08-23T04:14:53.908Z,66.20
2022-08-23T04:17:23.144Z,66.20
2022-08-23T04:19:51.986Z,66.20
2022-08-23T04:22:21.040Z,66.10
2022-08-23T04:24:49.063Z,66.20
2022-08-23T04:27:17.327Z,66.10
2022-08-23T04:29:48.087Z,66.10
2022-08-23T04:32:26.766Z,66.20
2022-08-23T04:34:58.425Z,66.10
2022-08-23T04:37:26.154Z,66.20
2022-08-23T04:40:12.642Z,66.10
2022-08-23T04:42:43.293Z,66.10
2022-08-23T04:45:11.843Z,66.20
2022-08-23T04:47:44.979Z,66.10
2022-08-23T04:50:12.838Z,66.10
2022-08-23T04:52:59.304Z,66.10
2022-08-23T04:55:27.096Z,66.20
2022-08-23T04:58:08.436Z,66.20
2022-08-23T05:00:48.202Z,66.20
2022-08-23T05:03:21.291Z,66.20
2022-08-23T05:05:48.799Z,66.20
2022-08-23T05:08:18.390Z,66.20
2022-08-23T05:10:47.013Z,66.20
2022-08-23T05:13:15.172Z,66.20
2022-08-23T05:15:44.347Z,66.10
2022-08-23T05:18:12.623Z,66.10
2022-08-23T05:20:41.306Z,66.10
2022-08-23T05:23:08.785Z,66.10
2022-08-23T05:25:53.325Z,66.20
2022-08-23T05:28:40.107Z,66.20
2022-08-23T05:31:16.008Z,66.10
2022-08-23T05:33:47.907Z,66.20
2022-08-23T05:36:20.541Z,66.20
2022-08-23T05:38:48.150Z,66.20
2022-08-23T05:41:17.064Z,66.20
2022-08-23T05:43:47.299Z,66.20
2022-08-23T05:46:26.636Z,66.20
2022-08-23T05:49:20.950Z,66.20
2022-08-23T05:51:51.436Z,66.20
2022-08-23T05:54:20.493Z,66.20
2022-08-23T05:57:00.361Z,66.20
2022-08-23T05:59:27.931Z,66.30
2022-08-23T06:01:55.532Z,66.20
2022-08-23T06:04:23.393Z,66.30
2022-08-23T06:06:50.967Z,66.20
2022-08-23T06:09:19.541Z,66.20
2022-08-23T06:11:48.339Z,66.20
2022-08-23T06:14:17.062Z,66.30
2022-08-23T06:16:48.059Z,66.20
2022-08-23T06:19:20.033Z,66.30
2022-08-23T06:21:47.817Z,66.30
2022-08-23T06:24:20.581Z,66.30
2022-08-23T06:27:01.550Z,66.30
2022-08-23T06:29:29.321Z,66.30
2022-08-23T06:32:15.138Z,66.40
2022-08-23T06:35:33.182Z,66.40
2022-08-23T06:38:06.805Z,66.40
2022-08-23T06:40:49.320Z,66.40
2022-08-23T06:43:26.548Z,66.40
2022-08-23T06:46:17.623Z,66.40
2022-08-23T06:48:46.157Z,66.40
2022-08-23T06:51:26.590Z,66.40
2022-08-23T06:54:15.499Z,66.50
2022-08-23T06:56:59.602Z,66.50
2022-08-23T06:59:42.270Z,66.50
2022-08-23T07:02:27.971Z,66.50
2022-08-23T07:04:59.014Z,66.50
2022-08-23T07:07:39.596Z,66.50
2022-08-23T07:10:14.554Z,66.60
2022-08-23T07:12:42.997Z,66.70
2022-08-23T07:15:14.240Z,66.50
2022-08-23T07:17:44.703Z,66.50
2022-08-23T07:20:12.999Z,66.50
2022-08-23T07:22:43.746Z,66.60
2022-08-23T07:25:12.001Z,66.50
2022-08-23T07:27:40.397Z,66.50
2022-08-23T07:30:09.870Z,66.50
2022-08-23T07:32:40.717Z,66.40
2022-08-23T07:35:21.549Z,66.50
2022-08-23T07:37:51.372Z,66.40
2022-08-23T07:40:20.306Z,66.50
2022-08-23T07:42:51.133Z,66.40
2022-08-23T07:45:23.103Z,66.40
2022-08-23T07:47:54.529Z,66.40
2022-08-23T07:50:24.670Z,66.40
2022-08-23T07:52:59.137Z,66.40
2022-08-23T07:55:26.590Z,66.50
2022-08-23T07:58:14.426Z,66.50
2022-08-23T08:00:55.137Z,66.50
2022-08-23T08:03:35.918Z,66.50
2022-08-23T08:06:31.965Z,66.50
2022-08-23T08:08:59.993Z,66.50
2022-08-23T08:11:34.589Z,66.40
2022-08-23T08:14:08.613Z,66.50
2022-08-23T08:16:48.818Z,66.40
2022-08-23T08:19:22.818Z,66.40
2022-08-23T08:22:05.426Z,66.40
2022-08-23T08:25:12.287Z,66.40
2022-08-23T08:27:42.693Z,66.40
2022-08-23T08:30:11.796Z,66.30
2022-08-23T08:32:46.963Z,66.30
2022-08-23T08:35:15.658Z,66.30
2022-08-23T08:37:44.237Z,66.30
2022-08-23T08:40:14.564Z,66.30
2022-08-23T08:42:58.899Z,66.30
2022-08-23T08:45:32.781Z,66.30
2022-08-23T08:48:13.529Z,66.30
2022-08-23T08:51:03.844Z,66.20
2022-08-23T08:53:40.187Z,66.20
2022-08-23T08:56:17.656Z,66.20
2022-08-23T08:59:09.785Z,66.20
2022-08-23T09:01:39.272Z,66.20
2022-08-23T09:04:08.225Z,66.20
2022-08-23T09:07:15.911Z,66.10
2022-08-23T09:09:55.966Z,66.20
2022-08-23T09:12:56.711Z,66.30
2022-08-23T09:15:49.159Z,66.30
2022-08-23T09:18:17.404Z,66.30
2022-08-23T09:20:48.436Z,66.30
2022-08-23T09:23:17.606Z,66.10
2022-08-23T09:25:54.051Z,66.30
2022-08-23T09:28:28.216Z,66.20
2022-08-23T09:30:58.031Z,66.30
2022-08-23T09:33:37.207Z,66.30
2022-08-23T09:36:24.264Z,66.20
2022-08-23T09:39:03.272Z,66.20
2022-08-23T09:41:39.271Z,66.20
2022-08-23T09:44:10.401Z,66.20
2022-08-23T09:46:44.484Z,66.20
2022-08-23T09:49:26.014Z,66.20
2022-08-23T09:52:01.272Z,66.10
2022-08-23T09:54:35.347Z,66.20
2022-08-23T09:57:12.133Z,66.20
2022-08-23T09:59:51.863Z,66.30
2022-08-23T10:02:35.309Z,66.30
2022-08-23T10:05:37.228Z,66.30
2022-08-23T10:08:10.519Z,66.50
2022-08-23T10:10:51.959Z,66.50
2022-08-23T10:13:27.203Z,66.30
2022-08-23T10:16:14.479Z,66.50
2022-08-23T10:19:15.566Z,66.50
2022-08-23T10:22:03.900Z,66.80
2022-08-23T10:24:48.574Z,66.70
2022-08-23T10:27:49.739Z,66.80
2022-08-23T10:30:32.756Z,66.60
2022-08-23T10:33:18.540Z,66.60
2022-08-23T10:36:12.504Z,66.40
2022-08-23T10:38:53.078Z,66.40
2022-08-23T10:41:38.767Z,66.30
2022-08-23T10:44:35.509Z,66.30
2022-08-23T10:47:28.900Z,66.30
2022-08-23T10:50:00.407Z,66.30
2022-08-23T10:52:37.466Z,66.30
2022-08-23T10:55:17.687Z,66.10
2022-08-23T10:57:48.039Z,66.10
2022-08-23T11:00:23.216Z,66.10
2022-08-23T11:02:56.300Z,66.00
2022-08-23T11:05:35.528Z,66.00
2022-08-23T11:08:36.906Z,66.00
2022-08-23T11:11:47.080Z,65.80
2022-08-23T11:14:36.744Z,65.70
2022-08-23T11:17:24.439Z,65.80
2022-08-23T11:19:56.159Z,65.70
2022-08-23T11:22:35.063Z,65.70
2022-08-23T11:25:07.234Z,65.60
2022-08-23T11:27:44.553Z,65.60
2022-08-23T11:30:33.415Z,65.60
2022-08-23T11:33:15.541Z,65.40
2022-08-23T11:36:08.532Z,65.40
2022-08-23T11:38:49.962Z,65.40
2022-08-23T11:41:25.454Z,65.30
2022-08-23T11:43:55.877Z,65.30
2022-08-23T11:46:27.296Z,65.30
2022-08-23T11:49:18.607Z,65.30
2022-08-23T11:51:55.173Z,65.10
2022-08-23T11:54:42.098Z,65.10
2022-08-23T11:57:32.215Z,65.00
2022-08-23T12:00:17.535Z,65.10
2022-08-23T12:02:51.954Z,65.00
2022-08-23T12:05:32.754Z,65.00
2022-08-23T12:08:03.091Z,64.90
2022-08-23T12:10:42.568Z,65.00
2022-08-23T12:13:46.383Z,64.90
2022-08-23T12:16:16.940Z,64.90
2022-08-23T12:18:47.953Z,64.90
2022-08-23T12:21:21.816Z,64.80
2022-08-23T12:23:53.139Z,65.40
2022-08-23T12:26:29.606Z,64.80
2022-08-23T12:29:24.441Z,65.00
2022-08-23T12:32:11.540Z,64.90
2022-08-23T12:34:57.791Z,64.90
2022-08-23T12:37:37.054Z,65.00
2022-08-23T12:40:09.460Z,65.00
2022-08-23T12:42:40.022Z,64.90
2022-08-23T12:45:21.172Z,65.00
2022-08-23T12:48:01.167Z,65.00
2022-08-23T12:50:39.396Z,64.90
2022-08-23T12:53:13.065Z,64.80
2022-08-23T12:55:44.798Z,64.80
2022-08-23T12:58:14.420Z,64.70
2022-08-23T13:00:54.608Z,64.90
2022-08-23T13:03:28.808Z,64.60
2022-08-23T13:05:57.724Z,64.60
2022-08-23T13:08:35.261Z,64.70
2022-08-23T13:11:08.208Z,64.60
2022-08-23T13:13:39.592Z,64.70
2022-08-23T13:16:29.515Z,64.70
2022-08-23T13:19:16.530Z,64.60
2022-08-23T13:21:45.179Z,64.60
2022-08-23T13:24:38.514Z,64.70
2022-08-23T13:27:38.326Z,64.70
2022-08-23T13:30:08.946Z,64.80
2022-08-23T13:32:41.835Z,64.70
2022-08-23T13:35:40.890Z,64.70
2022-08-23T13:38:08.552Z,64.60
2022-08-23T13:40:42.170Z,64.60
2022-08-23T13:43:15.366Z,64.50
2022-08-23T13:45:52.085Z,64.80
2022-08-23T13:48:41.409Z,64.40
2022-08-23T13:51:20.798Z,64.40
2022-08-23T13:53:48.252Z,64.60
2022-08-23T13:56:16.416Z,64.70
2022-08-23T13:58:52.294Z,64.90
2022-08-23T14:01:20.435Z,64.90
2022-08-23T14:03:47.942Z,64.70
2022-08-23T14:06:15.560Z,64.70
2022-08-23T14:08:43.012Z,64.60
2022-08-23T14:11:12.055Z,64.70
2022-08-23T14:13:39.565Z,64.90
2022-08-23T14:21:46.900Z,64.90
2022-08-23T14:24:14.379Z,64.90
2022-08-23T14:26:50.202Z,64.90
2022-08-23T14:29:22.452Z,65.10
2022-08-23T14:31:52.665Z,64.50
2022-08-23T14:34:20.865Z,64.50
2022-08-23T14:39:37.208Z,64.70
2022-08-23T14:42:05.929Z,64.70
2022-08-23T14:44:36.239Z,64.70
2022-08-23T14:47:05.630Z,64.70
2022-08-23T14:49:34.128Z,64.70
2022-08-23T14:52:01.743Z,64.80
2022-08-23T14:54:29.562Z,64.70
2022-08-23T14:56:57.222Z,64.70
2022-08-23T14:59:24.703Z,64.70
2022-08-23T15:01:53.713Z,64.80
2022-08-23T15:04:23.380Z,64.70
2022-08-23T15:09:39.139Z,64.80
2022-08-23T15:14:57.090Z,64.90
2022-08-23T15:17:30.295Z,64.90
2022-08-23T15:19:59.734Z,65.00
2022-08-23T15:22:27.309Z,65.00
2022-08-23T15:24:54.776Z,65.00
2022-08-23T15:27:23.032Z,64.90
2022-08-23T15:29:50.532Z,64.90
2022-08-23T15:32:22.308Z,64.80
2022-08-23T15:34:50.681Z,64.80
2022-08-23T15:37:21.539Z,64.80
2022-08-23T15:39:50.119Z,64.90
2022-08-23T15:42:20.538Z,64.90
2022-08-23T15:44:49.336Z,65.00
2022-08-23T15:47:28.007Z,65.00
2022-08-23T15:49:55.942Z,64.80
2022-08-23T15:52:23.441Z,64.90
2022-08-23T15:54:51.034Z,65.00
2022-08-23T15:57:27.918Z,65.00
2022-08-23T15:59:57.303Z,65.00
2022-08-23T16:02:24.960Z,65.00
2022-08-23T16:04:52.450Z,65.00
2022-08-23T16:07:21.690Z,64.90
2022-08-23T16:09:49.291Z,65.10
2022-08-23T16:12:16.918Z,65.10
2022-08-23T16:14:44.411Z,65.20
2022-08-23T16:17:20.542Z,65.20
2022-08-23T16:19:48.445Z,65.10
2022-08-23T16:22:17.096Z,65.20
2022-08-23T16:24:45.038Z,65.20
2022-08-23T16:27:12.515Z,65.00
2022-08-23T16:29:41.174Z,65.00
2022-08-23T16:32:09.411Z,65.80
2022-08-23T16:34:36.928Z,65.60
2022-08-23T16:37:06.715Z,65.60
2022-08-23T16:39:34.873Z,65.60
2022-08-23T16:42:04.964Z,65.70
2022-08-23T16:44:33.610Z,65.60
2022-08-23T16:47:03.828Z,65.60
2022-08-23T16:49:34.088Z,65.70
2022-08-23T16:52:02.559Z,65.60
2022-08-23T16:54:30.043Z,65.60
2022-08-23T16:56:57.468Z,65.70
2022-08-23T16:59:25.475Z,65.70
2022-08-23T17:02:04.523Z,65.70
2022-08-23T17:04:38.547Z,65.80
2022-08-23T17:07:07.561Z,65.80
2022-08-23T17:09:35.090Z,65.70
2022-08-23T17:12:03.444Z,65.70
2022-08-23T17:14:31.501Z,65.80
2022-08-23T17:17:00.142Z,65.60
2022-08-23T17:19:27.681Z,65.60
2022-08-23T17:21:55.103Z,65.60
2022-08-23T17:24:24.556Z,65.50
2022-08-23T17:26:51.997Z,65.60
2022-08-23T17:29:20.457Z,65.70
2022-08-23T17:31:48.083Z,65.60
2022-08-23T17:34:15.674Z,65.60
2022-08-23T17:36:49.511Z,65.80
2022-08-23T17:39:20.791Z,65.70
2022-08-23T17:41:48.480Z,65.80
2022-08-23T17:44:16.094Z,65.70
2022-08-23T17:46:45.635Z,65.50
2022-08-23T17:49:14.179Z,65.60
2022-08-23T17:51:41.811Z,65.70
2022-08-23T17:54:11.480Z,65.70
2022-08-23T17:56:50.613Z,65.60
2022-08-23T17:59:20.346Z,65.60
2022-08-23T18:01:47.954Z,65.80
2022-08-23T18:04:15.647Z,65.70
2022-08-23T18:06:43.654Z,65.80
2022-08-23T18:09:12.508Z,65.70
2022-08-23T18:11:40.395Z,65.80
2022-08-23T18:14:08.642Z,65.70
2022-08-23T18:16:36.904Z,65.80
2022-08-23T18:19:07.275Z,65.90
2022-08-23T18:21:39.862Z,65.90
2022-08-23T18:24:08.010Z,65.90
2022-08-23T18:26:55.853Z,66.00
2022-08-23T18:29:25.041Z,66.00
2022-08-23T18:31:52.555Z,66.00
2022-08-23T18:34:20.953Z,65.80
2022-08-23T18:36:49.068Z,65.90
2022-08-23T18:39:17.558Z,65.90
2022-08-23T18:42:04.305Z,65.90
2022-08-23T18:44:32.575Z,66.00
2022-08-23T18:47:02.147Z,66.00
2022-08-23T18:49:29.896Z,66.10
2022-08-23T18:51:58.543Z,66.10
2022-08-23T18:54:31.820Z,66.10
2022-08-23T18:57:02.446Z,66.10
2022-08-23T18:59:30.366Z,66.20
2022-08-23T19:01:58.113Z,66.20
2022-08-23T19:04:27.178Z,66.20
2022-08-23T19:06:54.633Z,66.20
2022-08-23T19:09:22.257Z,66.20
2022-08-23T19:11:50.326Z,66.10
2022-08-23T19:14:17.777Z,66.20
2022-08-23T19:16:48.547Z,66.10
2022-08-23T19:19:17.161Z,66.10
2022-08-23T19:21:45.023Z,66.20
2022-08-23T19:24:12.550Z,66.20
2022-08-23T19:26:44.499Z,66.30
2022-08-23T19:29:12.044Z,66.30
2022-08-23T19:31:45.514Z,66.30
2022-08-23T19:34:12.978Z,66.40
2022-08-23T19:36:46.965Z,66.30
2022-08-23T19:39:18.013Z,66.40
2022-08-23T19:41:46.421Z,66.30
2022-08-23T19:44:14.103Z,66.20
2022-08-23T19:46:45.426Z,66.30
2022-08-23T19:49:14.750Z,66.30
2022-08-23T19:51:42.685Z,66.20
2022-08-23T19:54:12.865Z,66.60
2022-08-23T19:56:42.046Z,66.10
2022-08-23T19:59:18.138Z,66.30
2022-08-23T20:01:46.272Z,66.30
2022-08-23T20:04:13.728Z,66.30
2022-08-23T20:06:42.325Z,66.30
2022-08-23T20:09:09.886Z,66.20
2022-08-23T20:11:37.652Z,66.00
2022-08-23T20:14:06.064Z,66.00
2022-08-23T20:16:34.237Z,66.10
2022-08-23T20:19:02.356Z,66.10
2022-08-23T20:21:30.009Z,66.30
2022-08-23T20:24:06.550Z,66.20
2022-08-23T20:26:41.289Z,66.20
2022-08-23T20:29:11.969Z,66.30
2022-08-23T20:31:47.176Z,66.30
2022-08-23T20:34:14.716Z,66.00
2022-08-23T20:36:42.137Z,66.10
2022-08-23T20:39:10.923Z,66.20
2022-08-23T20:41:39.740Z,66.10
2022-08-23T20:44:09.166Z,66.20
2022-08-23T20:46:37.054Z,66.20
2022-08-23T20:49:05.627Z,66.20
2022-08-23T20:51:36.705Z,66.30
2022-08-23T20:54:08.688Z,66.20
2022-08-23T20:56:38.212Z,66.20
2022-08-23T20:59:07.721Z,66.30
2022-08-23T21:01:36.740Z,66.30
2022-08-23T21:04:05.629Z,66.20
2022-08-23T21:06:46.100Z,66.20
2022-08-23T21:09:19.319Z,66.30
2022-08-23T21:11:48.657Z,66.30
2022-08-23T21:14:17.766Z,66.30
2022-08-23T21:16:47.602Z,66.40
2022-08-23T21:19:16.023Z,66.30
2022-08-23T21:21:43.612Z,66.30
2022-08-23T21:24:11.920Z,66.30
2022-08-23T21:26:40.354Z,66.30
2022-08-23T21:29:09.648Z,66.40
2022-08-23T21:31:38.040Z,66.40
2022-08-23T21:34:07.638Z,66.50
2022-08-23T21:36:37.898Z,66.50
2022-08-23T21:39:06.040Z,66.50
2022-08-23T21:41:36.513Z,66.50
2022-08-23T21:44:06.900Z,66.50
2022-08-23T21:46:34.848Z,66.50
2022-08-23T21:49:02.969Z,66.50
2022-08-23T21:51:30.459Z,66.50
2022-08-23T21:53:58.645Z,66.50
2022-08-23T21:56:27.967Z,66.50
2022-08-23T21:59:03.515Z,66.50
2022-08-23T22:01:34.327Z,66.50
2022-08-23T22:04:02.542Z,66.60
2022-08-23T22:06:30.118Z,66.60
2022-08-23T22:08:57.695Z,66.60
2022-08-23T22:11:25.160Z,66.60
2022-08-23T22:13:56.559Z,66.60
2022-08-23T22:16:24.552Z,66.60
2022-08-23T22:18:52.051Z,66.60
2022-08-23T22:21:19.504Z,66.60
2022-08-23T22:23:46.964Z,66.60
2022-08-23T22:26:14.456Z,66.60
2022-08-23T22:28:44.850Z,66.60
2022-08-23T22:31:15.367Z,66.60
2022-08-23T22:33:43.786Z,66.60
2022-08-23T22:36:15.964Z,66.60
2022-08-23T22:38:44.556Z,66.60
2022-08-23T22:41:18.607Z,66.60
2022-08-23T22:43:47.068Z,66.60
2022-08-23T22:46:15.097Z,66.60
2022-08-23T22:48:42.847Z,66.60
2022-08-23T22:51:13.857Z,66.60
2022-08-23T22:53:45.271Z,66.60
2022-08-23T22:56:15.337Z,66.60
2022-08-23T22:58:43.234Z,66.60
2022-08-23T23:01:17.997Z,66.60
2022-08-23T23:03:46.172Z,66.60
2022-08-23T23:06:16.369Z,66.60
2022-08-23T23:08:44.017Z,66.60
2022-08-23T23:11:13.315Z,66.70
2022-08-23T23:13:41.162Z,66.70
2022-08-23T23:16:14.059Z,66.60
2022-08-23T23:19:03.580Z,66.70
2022-08-23T23:21:48.949Z,66.60
2022-08-23T23:24:24.452Z,66.70
2022-08-23T23:26:52.085Z,66.70
2022-08-23T23:29:20.057Z,66.70
2022-08-23T23:31:47.848Z,66.70
2022-08-23T23:34:15.549Z,66.70
2022-08-23T23:36:43.363Z,66.70
2022-08-23T23:39:12.625Z,66.70
2022-08-23T23:41:40.566Z,66.70
2022-08-23T23:44:08.865Z,66.70
2022-08-23T23:46:36.345Z,66.70
2022-08-23T23:49:05.710Z,66.70
2022-08-23T23:51:33.595Z,66.70
2022-08-23T23:54:01.785Z,66.70
2022-08-23T23:56:31.320Z,66.70
2022-08-23T23:58:59.421Z,66.80
